Time;durP1;ratioP1;P1;durP2;ratioP2;P2;SDS_P1;SDS_P2;PMS_P1;PMS_P2;Temp;Humidity;BMP_temperature;BMP_pressure;BME280_temperature;BME280_humidity;BME280_pressure;Samples;Min_cycle;Max_cycle;Signal;HPM_P1;HPM_P2
2021/08/12 00:00:27;;;;;;;4.03;3.73;;;;;;;17.21;77.00;100919.06;5046389;28;20338;-79
2021/08/12 00:02:54;;;;;;;5.17;4.20;;;;;;;17.22;76.69;100934.00;5046965;28;20219;-79
2021/08/12 00:05:20;;;;;;;5.23;4.27;;;;;;;17.24;75.84;100965.56;5048655;28;20274;-80
2021/08/12 00:07:48;;;;;;;5.47;4.97;;;;;;;17.19;75.28;100999.19;5048855;28;20742;-79
2021/08/12 00:10:15;;;;;;;4.93;4.43;;;;;;;17.16;75.20;101000.16;5048731;28;20235;-79
2021/08/12 00:12:41;;;;;;;4.80;4.30;;;;;;;17.16;74.63;101010.72;5048344;28;20236;-79
2021/08/12 00:15:08;;;;;;;7.83;4.83;;;;;;;17.10;74.23;101031.19;5048990;28;20217;-80
2021/08/12 00:17:35;;;;;;;4.87;4.47;;;;;;;17.03;73.91;101052.50;5049311;28;20211;-79
2021/08/12 00:20:01;;;;;;;5.73;5.20;;;;;;;17.01;73.18;101077.22;5049617;28;20722;-80
2021/08/12 00:22:28;;;;;;;5.50;4.97;;;;;;;16.99;73.35;101064.09;5048348;28;20218;-79
2021/08/12 00:24:56;;;;;;;5.87;4.77;;;;;;;17.00;73.10;101063.16;5049636;28;20206;-79
2021/08/12 00:27:22;;;;;;;5.47;5.00;;;;;;;16.93;73.80;101040.56;5050057;28;20202;-79
2021/08/12 00:29:49;;;;;;;5.13;4.70;;;;;;;16.91;73.72;101047.69;5048105;28;20230;-79
2021/08/12 00:32:16;;;;;;;5.40;5.00;;;;;;;16.82;74.28;101033.03;5048051;28;20238;-80
2021/08/12 00:34:43;;;;;;;4.80;4.43;;;;;;;16.77;75.01;101011.22;5047975;28;20211;-79
2021/08/12 00:37:09;;;;;;;4.50;4.10;;;;;;;16.67;75.35;101000.16;5048489;28;20203;-79
2021/08/12 00:39:36;;;;;;;4.93;4.53;;;;;;;16.67;75.13;101001.94;5049106;28;20201;-79
2021/08/12 00:42:04;;;;;;;5.07;4.67;;;;;;;16.60;75.95;100979.31;5047083;28;20284;-79
2021/08/12 00:44:31;;;;;;;4.47;4.17;;;;;;;16.48;76.20;100960.38;5050532;28;20306;-79
2021/08/12 00:46:57;;;;;;;5.20;4.80;;;;;;;16.44;77.21;100929.78;5052957;28;20267;-78
2021/08/12 00:49:24;;;;;;;4.70;4.30;;;;;;;16.43;77.04;100928.09;5053047;28;20219;-78
2021/08/12 00:51:51;;;;;;;4.97;4.57;;;;;;;16.44;77.47;100916.59;5051408;28;20287;-78
2021/08/12 00:54:18;;;;;;;5.97;4.50;;;;;;;16.46;78.23;100887.56;5052905;28;20245;-78
2021/08/12 00:56:47;;;;;;;6.77;4.67;;;;;;;16.45;78.13;100897.25;5053083;28;20262;-78
2021/08/12 00:59:15;;;;;;;4.90;4.47;;;;;;;16.45;78.49;100881.47;5051996;28;20669;-79
2021/08/12 01:01:43;;;;;;;7.37;4.70;;;;;;;16.50;79.29;100861.97;5053481;28;20580;-79
2021/08/12 01:04:09;;;;;;;5.40;4.90;;;;;;;16.47;79.47;100847.13;5051254;28;20222;-78
2021/08/12 01:06:46;;;;;;;7.17;5.40;;;;;;;16.49;78.75;100871.66;5052973;28;20210;-80
2021/08/12 01:09:22;;;;;;;6.23;5.40;;;;;;;16.50;78.32;100886.53;5051209;28;20741;-78
2021/08/12 01:11:56;;;;;;;8.03;6.40;;;;;;;16.46;77.97;100903.38;5052424;28;20205;-77
2021/08/12 01:14:29;;;;;;;5.23;4.70;;;;;;;16.44;77.67;100906.06;5051963;28;20254;-78
2021/08/12 01:16:58;;;;;;;5.80;5.40;;;;;;;16.38;77.96;100900.16;5051575;28;20221;-78
2021/08/12 01:20:04;;;;;;;4.87;4.47;;;;;;;16.37;77.92;100896.69;5053201;28;20202;-77
2021/08/12 01:22:33;;;;;;;6.30;4.83;;;;;;;16.37;78.22;100890.53;5051564;28;20232;-79
2021/08/12 01:25:03;;;;;;;5.37;4.87;;;;;;;16.34;78.51;100893.28;5052141;28;21287;-78
2021/08/12 01:27:32;;;;;;;5.60;5.10;;;;;;;16.34;77.94;100891.50;5050853;28;20275;-78
2021/08/12 01:30:06;;;;;;;5.97;5.47;;;;;;;16.34;77.78;100895.94;5052285;28;20226;-78
2021/08/12 01:32:40;;;;;;;6.17;5.40;;;;;;;16.34;77.83;100898.56;5050986;28;20230;-80
2021/08/12 01:35:11;;;;;;;5.57;5.10;;;;;;;16.37;77.92;100898.44;5051380;28;20205;-80
2021/08/12 01:37:41;;;;;;;5.53;5.13;;;;;;;16.35;77.77;100898.50;5051578;28;20210;-79
2021/08/12 01:40:11;;;;;;;6.23;5.73;;;;;;;16.35;77.10;100924.88;5050480;28;20295;-80
2021/08/12 01:42:39;;;;;;;6.73;6.03;;;;;;;16.45;77.94;100899.91;5048429;28;20435;-80
2021/08/12 01:45:06;;;;;;;6.37;5.87;;;;;;;16.52;77.17;100926.03;5051743;28;20875;-80
2021/08/12 01:47:35;;;;;;;6.00;5.60;;;;;;;16.56;77.19;100935.53;5050805;28;20730;-80
2021/08/12 01:50:04;;;;;;;5.97;5.37;;;;;;;16.55;77.50;100933.81;5050735;28;20237;-80
2021/08/12 01:52:34;;;;;;;5.77;5.27;;;;;;;16.51;78.42;100896.19;5049393;28;20240;-81
2021/08/12 01:55:02;;;;;;;6.07;5.60;;;;;;;16.50;78.49;100885.69;5049916;28;20257;-80
2021/08/12 01:57:29;;;;;;;6.10;5.43;;;;;;;16.51;79.11;100868.94;5048926;28;20267;-80
2021/08/12 01:59:56;;;;;;;5.87;5.37;;;;;;;16.52;79.81;100853.09;5049914;28;20231;-80
2021/08/12 02:02:23;;;;;;;6.13;5.47;;;;;;;16.46;79.12;100861.22;5049376;28;20206;-80
2021/08/12 02:04:51;;;;;;;5.97;5.53;;;;;;;16.42;79.35;100864.88;5050211;28;20206;-80
2021/08/12 02:07:18;;;;;;;6.40;5.90;;;;;;;16.16;77.11;100934.31;5049114;28;20591;-79
2021/08/12 02:09:46;;;;;;;7.20;6.60;;;;;;;15.87;77.13;100944.03;5050320;28;20248;-80
2021/08/12 02:12:12;;;;;;;6.63;6.20;;;;;;;15.98;78.10;100894.50;5049272;28;20283;-79
2021/08/12 02:14:39;;;;;;;9.53;6.33;;;;;;;16.01;77.78;100911.97;5049849;28;20206;-80
2021/08/12 02:17:06;;;;;;;7.10;6.50;;;;;;;15.96;78.64;100872.66;5050189;28;20215;-79
2021/08/12 02:19:33;;;;;;;6.80;6.30;;;;;;;15.96;79.15;100858.63;5049643;28;20206;-80
2021/08/12 02:22:02;;;;;;;9.60;5.60;;;;;;;15.93;79.15;100858.72;5048909;28;20292;-79
2021/08/12 02:24:34;;;;;;;6.03;5.57;;;;;;;15.99;78.47;100884.84;5049893;28;20229;-79
2021/08/12 02:27:06;;;;;;;6.50;6.00;;;;;;;15.98;78.37;100893.66;5050059;28;20210;-79
2021/08/12 02:29:34;;;;;;;6.97;6.37;;;;;;;15.93;78.77;100887.69;5049478;28;20248;-79
2021/08/12 02:32:04;;;;;;;7.93;6.73;;;;;;;15.98;78.30;100891.88;5048820;28;20202;-79
2021/08/12 02:34:32;;;;;;;6.80;6.17;;;;;;;15.89;78.59;100893.03;5049066;28;21057;-80
2021/08/12 02:37:03;;;;;;;6.17;5.70;;;;;;;15.89;78.61;100889.56;5048949;28;20205;-80
2021/08/12 02:39:30;;;;;;;6.53;5.87;;;;;;;15.94;78.29;100895.53;5049718;28;20217;-81
2021/08/12 02:41:58;;;;;;;6.07;5.57;;;;;;;15.84;79.49;100854.66;5047816;28;20218;-79
2021/08/12 02:44:27;;;;;;;7.97;5.97;;;;;;;15.80;79.56;100848.63;5049796;28;20573;-79
2021/08/12 02:46:54;;;;;;;6.70;6.07;;;;;;;15.79;79.81;100851.28;5048619;28;20229;-80
2021/08/12 02:49:22;;;;;;;6.47;5.87;;;;;;;15.76;80.36;100828.56;5049294;28;20201;-80
2021/08/12 02:51:50;;;;;;;6.00;5.60;;;;;;;15.78;80.63;100820.63;5048755;28;20213;-79
2021/08/12 02:54:18;;;;;;;6.77;6.10;;;;;;;15.76;80.78;100801.41;5048892;28;20229;-81
2021/08/12 02:56:46;;;;;;;6.43;5.97;;;;;;;15.75;80.91;100805.78;5048856;28;20212;-79
2021/08/12 02:59:13;;;;;;;6.57;6.17;;;;;;;15.72;81.51;100794.47;5048343;28;20202;-80
2021/08/12 03:01:43;;;;;;;6.13;5.73;;;;;;;15.75;80.86;100799.66;5048113;28;20213;-80
2021/08/12 03:04:10;;;;;;;8.80;6.57;;;;;;;15.68;81.29;100793.75;5047621;28;20314;-79
2021/08/12 03:06:39;;;;;;;6.37;5.97;;;;;;;15.72;80.88;100808.50;5048914;28;20263;-79
2021/08/12 03:09:06;;;;;;;6.53;6.10;;;;;;;15.66;80.97;100799.03;5047789;28;20997;-80
2021/08/12 03:11:35;;;;;;;6.70;6.10;;;;;;;15.64;81.51;100790.34;5048646;28;20225;-79
2021/08/12 03:14:02;;;;;;;7.00;6.50;;;;;;;15.58;81.91;100780.03;5047375;28;20265;-79
2021/08/12 03:16:30;;;;;;;7.00;6.60;;;;;;;15.55;81.81;100784.53;5048623;28;20241;-79
2021/08/12 03:18:58;;;;;;;7.10;6.50;;;;;;;15.52;81.67;100777.63;5046902;28;20271;-79
2021/08/12 03:21:25;;;;;;;7.13;6.63;;;;;;;15.43;82.27;100760.34;5047668;28;20202;-79
2021/08/12 03:23:52;;;;;;;7.47;6.87;;;;;;;15.40;82.18;100765.72;5046799;28;20232;-79
2021/08/12 03:26:19;;;;;;;7.10;6.57;;;;;;;15.43;81.57;100781.41;5048676;28;20217;-79
2021/08/12 03:28:45;;;;;;;7.43;6.83;;;;;;;15.40;81.69;100785.91;5046857;28;20202;-79
2021/08/12 03:31:12;;;;;;;6.63;6.03;;;;;;;15.42;81.78;100786.69;5047533;28;20233;-80
2021/08/12 03:33:39;;;;;;;6.53;6.10;;;;;;;15.39;81.62;100795.56;5046828;28;20236;-79
2021/08/12 03:36:07;;;;;;;7.13;6.47;;;;;;;15.37;81.43;100786.88;5046348;28;20210;-80
2021/08/12 03:38:34;;;;;;;8.10;7.50;;;;;;;15.33;82.10;100774.72;5047621;28;20278;-79
2021/08/12 03:41:00;;;;;;;7.07;6.57;;;;;;;15.33;81.74;100785.25;5047350;28;20376;-79
2021/08/12 03:43:27;;;;;;;8.30;7.00;;;;;;;15.34;81.78;100789.63;5046227;28;20739;-79
2021/08/12 03:45:53;;;;;;;7.40;6.93;;;;;;;15.28;81.92;100785.41;5046153;28;20243;-79
2021/08/12 03:48:20;;;;;;;7.43;6.83;;;;;;;15.24;82.00;100782.91;5048443;28;20607;-80
2021/08/12 03:50:46;;;;;;;6.97;6.47;;;;;;;15.22;81.99;100785.63;5050583;28;20221;-79
2021/08/12 03:53:14;;;;;;;7.07;6.57;;;;;;;15.21;82.03;100780.41;5048105;28;20291;-79
2021/08/12 03:55:40;;;;;;;7.10;6.70;;;;;;;15.21;82.30;100768.09;5048946;28;20205;-79
2021/08/12 03:58:07;;;;;;;9.03;7.40;;;;;;;15.17;82.48;100763.00;5048267;28;20212;-81
2021/08/12 04:00:33;;;;;;;7.47;6.97;;;;;;;15.17;82.29;100755.97;5048307;28;20201;-79
2021/08/12 04:03:00;;;;;;;6.83;6.23;;;;;;;15.16;82.13;100764.75;5047951;28;20307;-79
2021/08/12 04:05:26;;;;;;;7.40;6.83;;;;;;;15.22;81.70;100790.00;5047176;28;20583;-79
2021/08/12 04:07:53;;;;;;;7.07;6.57;;;;;;;15.18;82.32;100764.72;5047109;28;20213;-79
2021/08/12 04:10:21;;;;;;;7.73;7.10;;;;;;;15.14;82.60;100757.84;5046988;28;20233;-79
2021/08/12 04:12:48;;;;;;;7.13;6.63;;;;;;;15.12;82.68;100763.13;5046430;28;20602;-79
2021/08/12 04:15:14;;;;;;;6.90;6.50;;;;;;;15.14;82.68;100768.34;5047036;28;20213;-80
2021/08/12 04:17:41;;;;;;;7.10;6.63;;;;;;;15.19;83.53;100751.50;5046707;28;20215;-80
2021/08/12 04:20:08;;;;;;;7.20;6.50;;;;;;;15.24;84.12;100715.41;5047723;28;20194;-80
2021/08/12 04:22:34;;;;;;;6.80;6.20;;;;;;;15.27;83.41;100735.47;5048401;28;20297;-80
2021/08/12 04:25:01;;;;;;;8.10;7.40;;;;;;;15.22;83.41;100738.28;5047618;28;20205;-80
2021/08/12 04:27:28;;;;;;;7.07;6.57;;;;;;;15.23;83.38;100755.75;5048983;28;21167;-80
2021/08/12 04:29:55;;;;;;;7.00;6.40;;;;;;;15.26;83.19;100766.19;5048846;28;20205;-80
2021/08/12 04:32:21;;;;;;;8.50;7.23;;;;;;;15.33;83.23;100766.00;5049014;28;20217;-80
2021/08/12 04:34:48;;;;;;;7.20;6.70;;;;;;;15.36;83.27;100765.88;5046774;28;20213;-80
2021/08/12 04:37:14;;;;;;;7.20;6.60;;;;;;;15.35;83.08;100775.53;5047055;28;20242;-79
2021/08/12 04:39:41;;;;;;;8.77;8.03;;;;;;;15.24;83.00;100791.69;5046449;28;20595;-80
2021/08/12 04:42:07;;;;;;;9.10;8.40;;;;;;;14.80;83.23;100774.69;5046873;28;20236;-79
2021/08/12 04:44:35;;;;;;;8.83;8.13;;;;;;;14.93;84.34;100733.97;5049017;28;20232;-79
2021/08/12 04:47:01;;;;;;;8.57;7.87;;;;;;;15.03;84.40;100732.75;5048351;28;20214;-80
2021/08/12 04:49:28;;;;;;;6.80;6.30;;;;;;;15.14;84.01;100742.91;5049415;28;20267;-79
2021/08/12 04:51:54;;;;;;;7.77;7.27;;;;;;;15.19;83.50;100764.66;5048424;28;20314;-79
2021/08/12 04:54:21;;;;;;;8.50;7.70;;;;;;;15.22;83.46;100767.22;5048848;28;20723;-79
2021/08/12 04:56:48;;;;;;;8.23;7.63;;;;;;;15.23;83.58;100762.81;5051039;28;20232;-79
2021/08/12 04:59:14;;;;;;;7.77;7.27;;;;;;;15.25;83.83;100753.09;5049165;28;20203;-80
2021/08/12 05:01:42;;;;;;;7.90;7.30;;;;;;;15.27;83.43;100754.75;5050732;28;20755;-79
2021/08/12 05:04:08;;;;;;;8.33;7.63;;;;;;;15.28;83.57;100760.84;5047675;28;20229;-80
2021/08/12 05:06:35;;;;;;;8.43;7.83;;;;;;;15.29;83.54;100760.81;5047138;28;20676;-80
2021/08/12 05:09:01;;;;;;;7.77;7.10;;;;;;;15.28;84.11;100743.34;5047441;28;20276;-79
2021/08/12 05:11:28;;;;;;;7.60;7.00;;;;;;;15.41;84.06;100748.16;5046950;28;20230;-80
2021/08/12 05:13:54;;;;;;;7.40;6.90;;;;;;;15.48;84.03;100744.44;5046408;28;20772;-80
2021/08/12 05:16:21;;;;;;;7.50;6.83;;;;;;;15.51;84.07;100739.03;5050469;28;20210;-80
2021/08/12 05:18:49;;;;;;;8.23;7.63;;;;;;;15.56;84.04;100760.81;5049862;28;20201;-80
2021/08/12 05:21:15;;;;;;;7.60;7.00;;;;;;;15.56;84.19;100749.41;5048514;28;20209;-81
2021/08/12 05:23:42;;;;;;;7.80;7.30;;;;;;;15.62;84.35;100743.94;5047270;28;20237;-80
2021/08/12 05:26:08;;;;;;;7.70;7.10;;;;;;;15.66;85.29;100722.72;5050659;28;20215;-79
2021/08/12 05:28:35;;;;;;;7.97;7.27;;;;;;;15.73;85.64;100707.59;5049054;28;20584;-80
2021/08/12 05:31:02;;;;;;;6.93;6.43;;;;;;;15.81;86.12;100695.00;5050507;28;20275;-80
2021/08/12 05:33:29;;;;;;;7.50;6.80;;;;;;;15.94;86.36;100684.91;5050435;28;20320;-79
2021/08/12 05:35:57;;;;;;;7.60;7.00;;;;;;;16.02;86.03;100709.16;5050068;28;20271;-79
2021/08/12 05:38:23;;;;;;;7.53;6.83;;;;;;;16.10;85.35;100729.09;5050502;28;20211;-78
2021/08/12 05:40:49;;;;;;;9.83;9.23;;;;;;;16.14;84.63;100757.91;5049279;28;20275;-80
2021/08/12 05:43:16;;;;;;;8.77;8.07;;;;;;;16.23;84.82;100747.03;5048670;28;20276;-79
2021/08/12 05:45:44;;;;;;;10.70;8.63;;;;;;;16.26;84.42;100761.84;5050330;28;20213;-79
2021/08/12 05:48:10;;;;;;;8.40;7.80;;;;;;;16.32;84.67;100758.97;5050875;28;20210;-80
2021/08/12 05:50:43;;;;;;;8.57;7.63;;;;;;;16.41;84.91;100739.31;5050081;28;21246;-79
2021/08/12 05:53:11;;;;;;;7.93;7.33;;;;;;;16.43;84.42;100777.00;5050627;28;20297;-79
2021/08/12 05:55:37;;;;;;;7.50;7.00;;;;;;;16.47;84.75;100747.88;5050610;28;20298;-79
2021/08/12 05:58:04;;;;;;;7.63;7.13;;;;;;;16.56;85.98;100712.38;5048386;28;20205;-80
2021/08/12 06:00:31;;;;;;;7.33;6.73;;;;;;;16.60;85.50;100719.25;5050023;28;20205;-80
2021/08/12 06:03:05;;;;;;;8.97;7.87;;;;;;;16.71;85.48;100728.50;5049978;28;20224;-80
2021/08/12 06:05:32;;;;;;;7.93;7.43;;;;;;;16.82;85.02;100729.81;5048876;28;20213;-80
2021/08/12 06:07:58;;;;;;;9.93;9.23;;;;;;;16.84;83.37;100799.16;5052197;28;20615;-80
2021/08/12 06:10:26;;;;;;;10.87;9.97;;;;;;;16.78;83.08;100819.63;5054775;28;20210;-79
2021/08/12 06:12:53;;;;;;;9.97;9.27;;;;;;;16.77;82.52;100826.69;5052417;28;20318;-79
2021/08/12 06:15:20;;;;;;;9.73;9.00;;;;;;;16.81;83.08;100816.88;5053518;28;20206;-80
2021/08/12 06:17:47;;;;;;;11.20;10.13;;;;;;;16.85;83.49;100792.13;5052632;28;20206;-80
2021/08/12 06:20:13;;;;;;;10.13;9.40;;;;;;;16.89;82.99;100812.19;5053395;28;20637;-80
2021/08/12 06:22:40;;;;;;;9.63;8.90;;;;;;;16.96;82.65;100812.78;5050152;28;20219;-80
2021/08/12 06:25:07;;;;;;;10.27;9.47;;;;;;;17.04;83.69;100785.19;5047802;28;20214;-80
2021/08/12 06:27:35;;;;;;;9.77;9.07;;;;;;;17.10;83.63;100799.91;5046423;28;20671;-79
2021/08/12 06:30:01;;;;;;;9.53;8.83;;;;;;;17.12;83.17;100803.34;5048248;28;20212;-80
2021/08/12 06:32:28;;;;;;;9.73;8.77;;;;;;;17.17;83.45;100811.09;5047370;28;20228;-79
2021/08/12 06:34:55;;;;;;;9.50;8.80;;;;;;;17.32;83.82;100791.13;5048907;28;20562;-80
2021/08/12 06:37:21;;;;;;;10.20;9.50;;;;;;;17.35;83.45;100805.06;5047965;28;20260;-79
2021/08/12 06:39:48;;;;;;;9.27;8.57;;;;;;;17.33;83.88;100796.34;5049915;28;20700;-79
2021/08/12 06:42:14;;;;;;;8.27;7.67;;;;;;;17.36;83.92;100796.22;5048305;28;20211;-80
2021/08/12 06:44:42;;;;;;;7.67;7.07;;;;;;;17.33;84.35;100783.16;5054398;28;20241;-80
2021/08/12 06:47:08;;;;;;;7.27;6.77;;;;;;;17.30;84.84;100769.22;5046475;28;20220;-80
2021/08/12 06:49:35;;;;;;;7.13;6.67;;;;;;;17.32;83.80;100810.44;5048266;28;20212;-78
2021/08/12 06:52:01;;;;;;;6.80;6.30;;;;;;;17.39;82.18;100854.16;5047272;28;20600;-80
2021/08/12 06:54:28;;;;;;;6.90;6.40;;;;;;;17.45;81.23;100897.91;5046854;28;20297;-80
2021/08/12 06:56:54;;;;;;;6.50;6.00;;;;;;;17.54;82.99;100836.84;5048406;28;20253;-79
2021/08/12 06:59:21;;;;;;;5.73;5.33;;;;;;;17.57;83.56;100799.72;5049300;28;20307;-80
2021/08/12 07:01:48;;;;;;;6.10;5.60;;;;;;;17.68;83.13;100828.34;5050161;28;20254;-80
2021/08/12 07:04:15;;;;;;;6.63;6.13;;;;;;;17.78;82.40;100876.31;5049821;28;20319;-80
2021/08/12 07:06:41;;;;;;;5.70;5.13;;;;;;;17.85;82.67;100851.41;5049814;28;20210;-80
2021/08/12 07:09:08;;;;;;;5.93;5.43;;;;;;;17.90;79.65;100918.09;5048860;28;20214;-80
2021/08/12 07:11:34;;;;;;;6.23;5.67;;;;;;;17.97;81.50;100898.41;5048262;28;20227;-80
2021/08/12 07:14:01;;;;;;;6.10;5.70;;;;;;;18.02;82.08;100851.53;5049127;28;20284;-80
2021/08/12 07:16:27;;;;;;;5.57;5.17;;;;;;;18.06;79.10;100937.66;5049343;28;20208;-80
2021/08/12 07:18:55;;;;;;;5.87;5.47;;;;;;;18.18;79.77;100964.50;5050702;28;21027;-80
2021/08/12 07:21:23;;;;;;;6.17;5.67;;;;;;;18.20;80.17;100939.72;5048711;28;20204;-80
2021/08/12 07:23:49;;;;;;;6.20;5.70;;;;;;;18.31;78.69;100975.41;5048125;28;20317;-79
2021/08/12 07:26:17;;;;;;;5.17;4.77;;;;;;;18.50;73.70;101150.81;5048852;28;20204;-80
2021/08/12 07:28:45;;;;;;;4.73;4.43;;;;;;;18.64;73.67;101137.03;5051708;28;20230;-80
2021/08/12 07:31:13;;;;;;;5.53;5.13;;;;;;;18.77;74.38;101122.38;5049635;28;20737;-79
2021/08/12 07:33:40;;;;;;;5.73;5.33;;;;;;;18.86;76.42;101036.50;5047722;28;20280;-80
2021/08/12 07:36:08;;;;;;;5.60;5.10;;;;;;;18.98;76.35;101069.50;5047980;28;20212;-82
2021/08/12 07:38:37;;;;;;;4.87;4.47;;;;;;;19.11;75.05;101088.31;5046476;28;20212;-82
2021/08/12 07:41:03;;;;;;;4.83;4.50;;;;;;;19.40;70.72;101252.03;5046773;28;20214;-80
2021/08/12 07:43:30;;;;;;;5.63;4.80;;;;;;;19.65;71.68;101258.94;5047479;28;20236;-80
2021/08/12 07:45:56;;;;;;;4.40;4.10;;;;;;;19.71;68.62;101334.63;5046318;28;20255;-80
2021/08/12 07:48:23;;;;;;;5.17;4.77;;;;;;;19.78;70.81;101240.72;5047118;28;20268;-80
2021/08/12 07:50:50;;;;;;;4.30;4.03;;;;;;;19.75;69.81;101262.94;5050962;28;20744;-81
2021/08/12 07:53:18;;;;;;;4.87;4.47;;;;;;;19.70;73.04;101177.50;5049404;28;20230;-80
2021/08/12 07:55:44;;;;;;;5.67;5.23;;;;;;;19.74;72.73;101207.38;5052738;28;20300;-81
2021/08/12 07:58:11;;;;;;;5.03;4.63;;;;;;;19.80;71.60;101245.06;5050821;28;20221;-81
2021/08/12 08:00:37;;;;;;;4.57;4.27;;;;;;;19.93;67.82;101372.56;5049238;28;20266;-80
2021/08/12 08:03:04;;;;;;;4.53;4.23;;;;;;;20.10;67.66;101349.75;5048407;28;20220;-81
2021/08/12 08:05:31;;;;;;;5.03;4.63;;;;;;;20.19;67.19;101381.16;5047545;28;20226;-81
2021/08/12 08:07:57;;;;;;;4.87;4.57;;;;;;;20.38;66.30;101453.66;5049967;28;20212;-81
2021/08/12 08:10:27;;;;;;;4.63;4.27;;;;;;;20.60;63.84;101533.19;5048147;28;20212;-80
2021/08/12 08:12:54;;;;;;;4.57;4.27;;;;;;;20.73;66.67;101435.38;5047799;28;20586;-81
2021/08/12 08:15:22;;;;;;;4.70;4.30;;;;;;;20.68;67.52;101354.25;5048050;28;20212;-81
2021/08/12 08:17:48;;;;;;;4.47;4.07;;;;;;;20.68;66.36;101420.59;5052867;28;20218;-81
2021/08/12 08:20:15;;;;;;;5.13;4.73;;;;;;;20.77;67.87;101357.34;5050523;28;20259;-81
2021/08/12 08:22:42;;;;;;;4.60;4.20;;;;;;;20.88;66.31;101417.88;5048262;28;20233;-82
2021/08/12 08:25:09;;;;;;;4.97;4.60;;;;;;;20.97;67.39;101361.69;5048737;28;20679;-81
2021/08/12 08:27:38;;;;;;;5.53;5.07;;;;;;;21.06;68.60;101340.94;5048635;28;20216;-81
2021/08/12 08:30:06;;;;;;;4.53;4.23;;;;;;;21.13;62.70;101499.88;5050216;28;20205;-81
2021/08/12 08:32:33;;;;;;;5.07;4.50;;;;;;;21.23;64.66;101497.66;5049973;28;20232;-81
2021/08/12 08:34:59;;;;;;;4.70;4.40;;;;;;;21.34;66.99;101385.59;5048987;28;20202;-81
2021/08/12 08:37:26;;;;;;;4.60;4.20;;;;;;;21.34;69.17;101290.00;5050213;28;20202;-81
2021/08/12 08:39:53;;;;;;;4.60;4.30;;;;;;;21.31;70.13;101224.63;5048766;28;20217;-81
2021/08/12 08:42:20;;;;;;;4.37;4.07;;;;;;;21.33;64.16;101520.22;5047747;28;20289;-81
2021/08/12 08:44:50;;;;;;;4.70;4.30;;;;;;;21.43;66.74;101385.19;5049608;28;20220;-81
2021/08/12 08:47:18;;;;;;;4.07;3.77;;;;;;;21.50;65.16;101449.50;5049079;28;20682;-81
2021/08/12 08:49:47;;;;;;;4.50;4.20;;;;;;;21.60;67.41;101339.16;5050443;28;20270;-82
2021/08/12 08:52:14;;;;;;;4.07;3.73;;;;;;;;;;5054040;28;20228;-82
2021/08/12 08:54:43;;;;;;;3.77;3.47;;;;;;;21.84;61.49;101609.97;5055611;28;20768;-81
2021/08/12 08:57:10;;;;;;;4.57;4.27;;;;;;;21.83;62.19;101496.63;5057070;28;20617;-82
2021/08/12 08:59:37;;;;;;;4.10;3.80;;;;;;;21.86;64.19;101546.97;5057610;28;20262;-81
2021/08/12 09:02:07;;;;;;;4.20;3.90;;;;;;;21.75;68.84;101292.38;5055398;28;20215;-82
2021/08/12 09:04:34;;;;;;;3.57;3.27;;;;;;;21.77;62.62;101545.63;5053644;28;20237;-83
2021/08/12 09:07:03;;;;;;;4.20;3.90;;;;;;;21.91;61.60;101595.47;5054491;28;20212;-81
2021/08/12 09:09:31;;;;;;;4.67;3.47;;;;;;;22.11;61.00;101629.94;5050819;28;20213;-80
2021/08/12 09:11:58;;;;;;;3.70;3.40;;;;;;;22.26;58.82;101678.91;5047392;28;20235;-81
2021/08/12 09:14:35;;;;;;;4.20;3.90;;;;;;;22.36;60.59;101623.47;5055598;28;20290;-81
2021/08/12 09:17:22;;;;;;;3.90;3.60;;;;;;;22.40;60.01;101646.31;5055664;28;20209;-81
2021/08/12 09:20:01;;;;;;;4.03;3.73;;;;;;;22.45;61.86;101551.13;5055690;28;20231;-81
2021/08/12 09:22:29;;;;;;;4.10;3.80;;;;;;;22.56;58.45;101619.81;5051096;28;20202;-81
2021/08/12 09:24:56;;;;;;;4.57;4.27;;;;;;;22.64;66.26;101403.84;5049864;28;20263;-81
2021/08/12 09:27:24;;;;;;;4.73;4.27;;;;;;;22.57;59.62;101624.16;5054288;28;20198;-81
2021/08/12 09:30:09;;;;;;;4.47;4.17;;;;;;;22.68;58.95;101679.53;5055261;28;20233;-80
2021/08/12 09:32:49;;;;;;;4.47;4.07;;;;;;;22.79;59.03;101653.22;5053513;28;20259;-82
2021/08/12 09:35:24;;;;;;;4.03;3.73;;;;;;;22.82;58.35;101690.34;5056470;28;20602;-80
2021/08/12 09:37:50;;;;;;;4.10;3.70;;;;;;;23.03;57.33;101696.41;5055647;28;20212;-80
2021/08/12 09:40:24;;;;;;;3.97;3.70;;;;;;;23.10;59.71;101665.84;5055645;28;20239;-80
2021/08/12 09:42:58;;;;;;;4.27;3.97;;;;;;;23.11;59.34;101635.63;5055637;28;20229;-80
2021/08/12 09:45:27;;;;;;;4.13;3.80;;;;;;;23.15;58.32;101653.19;5055904;28;20228;-81
2021/08/12 09:47:55;;;;;;;4.53;4.13;;;;;;;23.13;59.42;101655.06;5051488;28;20242;-80
2021/08/12 09:50:27;;;;;;;3.93;3.63;;;;;;;23.15;58.65;101674.47;5049800;28;20626;-80
2021/08/12 09:52:54;;;;;;;3.83;3.57;;;;;;;23.13;58.68;101660.38;5053918;28;20264;-80
2021/08/12 09:55:22;;;;;;;4.13;3.83;;;;;;;23.17;57.99;101688.59;5054757;28;20283;-81
2021/08/12 09:57:51;;;;;;;3.93;3.57;;;;;;;23.26;60.45;101571.81;5049532;28;20208;-80
2021/08/12 10:00:38;;;;;;;4.47;4.07;;;;;;;23.39;63.39;101466.28;5046318;28;20208;-80
2021/08/12 10:03:21;;;;;;;5.67;4.80;;;;;;;23.46;58.07;101654.19;5044654;28;20224;-80
2021/08/12 10:05:48;;;;;;;4.00;3.70;;;;;;;23.55;56.65;101700.84;5046322;28;20208;-81
2021/08/12 10:08:26;;;;;;;3.50;3.30;;;;;;;23.64;58.26;101704.81;5048337;28;20261;-80
2021/08/12 10:10:52;;;;;;;6.63;4.63;;;;;;;23.71;58.34;101672.41;5046393;28;20241;-81
2021/08/12 10:13:19;;;;;;;4.20;3.87;;;;;;;23.82;59.38;101609.66;5045143;28;20236;-81
2021/08/12 10:15:49;;;;;;;7.13;4.40;;;;;;;23.85;55.90;101727.69;5046692;28;20306;-80
2021/08/12 10:18:18;;;;;;;6.13;4.03;;;;;;;23.88;58.80;101651.97;5046920;28;20211;-80
2021/08/12 10:20:46;;;;;;;5.23;4.07;;;;;;;23.95;58.15;101670.22;5047169;28;20213;-81
2021/08/12 10:23:13;;;;;;;3.97;3.67;;;;;;;24.01;54.78;101801.53;5045345;28;20228;-80
2021/08/12 10:25:41;;;;;;;4.37;3.90;;;;;;;24.07;55.05;101779.84;5046511;28;20204;-80
2021/08/12 10:28:09;;;;;;;3.73;3.43;;;;;;;24.08;53.84;101827.81;5047964;28;20627;-80
2021/08/12 10:30:37;;;;;;;3.93;3.33;;;;;;;24.14;54.14;101789.22;5050750;28;20475;-81
2021/08/12 10:33:05;;;;;;;3.93;3.63;;;;;;;24.27;55.67;101728.06;5052934;28;20235;-81
2021/08/12 10:35:34;;;;;;;4.97;4.10;;;;;;;24.25;53.89;101716.63;5051512;28;20215;-81
2021/08/12 10:38:02;;;;;;;5.33;4.60;;;;;;;24.26;56.02;101702.31;5052873;28;20211;-82
2021/08/12 10:40:30;;;;;;;4.10;3.80;;;;;;;24.38;64.32;101298.63;5052114;28;20213;-81
2021/08/12 10:42:58;;;;;;;4.63;4.23;;;;;;;24.47;59.97;101530.25;5052413;28;20295;-81
2021/08/12 10:45:26;;;;;;;4.10;3.80;;;;;;;24.37;55.01;101694.56;5053412;28;20213;-82
2021/08/12 10:47:55;;;;;;;5.17;4.30;;;;;;;24.29;55.31;101732.34;5051203;28;20209;-81
2021/08/12 10:50:39;;;;;;;4.80;4.50;;;;;;;24.38;55.32;101737.19;5050331;28;20198;-81
2021/08/12 10:53:14;;;;;;;4.33;4.00;;;;;;;24.55;57.56;101650.81;5045169;28;20225;-81
2021/08/12 10:56:16;;;;;;;4.03;3.63;;;;;;;24.58;55.53;101688.03;5048151;28;20205;-81
2021/08/12 10:59:08;;;;;;;4.97;4.07;;;;;;;24.56;55.33;101742.47;5043936;28;20215;-81
2021/08/12 11:01:37;;;;;;;4.03;3.73;;;;;;;24.54;55.47;101686.50;5043829;28;20209;-81
2021/08/12 11:04:05;;;;;;;3.87;3.40;;;;;;;24.51;53.71;101805.94;5044481;28;20229;-80
2021/08/12 11:06:44;;;;;;;4.00;3.60;;;;;;;24.49;53.31;101826.47;5044678;28;20659;-79
2021/08/12 11:09:11;;;;;;;3.83;3.47;;;;;;;24.66;55.26;101692.94;5044535;28;20239;-80
2021/08/12 11:11:52;;;;;;;4.40;4.00;;;;;;;24.84;55.47;101731.03;5044500;28;20206;-80
2021/08/12 11:14:56;;;;;;;3.83;3.40;;;;;;;25.07;50.96;101886.47;5043751;28;20732;-81
2021/08/12 11:17:23;;;;;;;4.40;3.40;;;;;;;25.35;53.56;101752.09;5042738;28;20206;-81
2021/08/12 11:19:52;;;;;;;3.80;3.50;;;;;;;25.59;52.87;101803.25;5044132;28;20217;-81
2021/08/12 11:22:34;;;;;;;4.10;3.73;;;;;;;25.87;51.79;101877.34;5043372;28;20224;-81
2021/08/12 11:25:01;;;;;;;4.13;3.80;;;;;;;26.02;53.45;101781.03;5042258;28;20210;-81
2021/08/12 11:27:49;;;;;;;4.27;3.90;;;;;;;26.18;52.99;101811.22;5041604;28;20205;-81
2021/08/12 11:30:40;;;;;;;4.10;3.80;;;;;;;26.05;50.14;101907.50;5039104;28;20259;-81
2021/08/12 11:33:29;;;;;;;3.77;3.47;;;;;;;26.07;50.18;101915.44;5032991;28;20225;-81